Time;durP1;ratioP1;P1;durP2;ratioP2;P2;SDS_P1;SDS_P2;PMS_P1;PMS_P2;Temp;Humidity;BMP_temperature;BMP_pressure;BME280_temperature;BME280_humidity;BME280_pressure;Samples;Min_cycle;Max_cycle;Signal;HPM_P1;HPM_P2
2021/10/03 00:01:06;;;;;;;;;;;;;;;;;;;;;
2021/10/03 00:03:51;;;;;;;3.50;2.65;;;;;;;19.33;43.08;102086.56;144992;575;6002;-86
2021/10/03 00:06:43;;;;;;;5.72;2.50;;;;;;;19.36;43.30;102086.63;144992;578;6002;-81
2021/10/03 00:09:35;;;;;;;3.45;2.40;;;;;;;19.21;44.22;102081.97;144992;654;6002;-89
2021/10/03 00:12:19;;;;;;;4.75;2.92;;;;;;;19.21;43.37;102089.88;144992;607;6002;-78
2021/10/03 00:15:16;;;;;;;4.50;3.10;;;;;;;19.26;43.45;102092.59;144991;565;6003;-84
2021/10/03 00:18:03;;;;;;;5.00;3.30;;;;;;;19.27;43.57;102097.00;144992;575;6002;-82
2021/10/03 00:20:48;;;;;;;5.82;3.60;;;;;;;19.27;43.78;102101.37;144992;666;6002;-84
2021/10/03 00:23:39;;;;;;;5.25;3.85;;;;;;;19.18;43.96;102103.00;144992;610;6002;-85
2021/10/03 00:26:41;;;;;;;;;;;;;;;;;;;;;
2021/10/03 00:29:24;;;;;;;7.20;4.22;;;;;;;19.22;44.14;102101.31;144992;625;6004;-87
2021/10/03 00:32:02;;;;;;;5.95;4.65;;;;;;;19.02;44.52;102093.06;144992;612;6004;-87
2021/10/03 00:34:55;;;;;;;8.55;4.50;;;;;;;18.68;45.28;102092.47;144992;595;6004;-87
2021/10/03 00:37:34;;;;;;;6.20;4.30;;;;;;;18.53;46.24;102098.31;144992;584;6004;-87
2021/10/03 00:40:28;;;;;;;4.10;3.58;;;;;;;18.48;45.92;102092.09;144992;626;6004;-84
2021/10/03 00:43:10;;;;;;;6.18;3.78;;;;;;;18.48;45.99;102086.81;144991;603;6000;-83
2021/10/03 00:46:22;;;;;;;5.60;3.75;;;;;;;18.42;46.54;102091.97;144992;577;6002;-85
2021/10/03 00:49:23;;;;;;;6.65;4.28;;;;;;;18.39;47.08;102086.66;144992;618;6002;-87
2021/10/03 00:52:21;;;;;;;;;;;;;;;18.41;45.92;102090.22;144997;908;6002;-86
2021/10/03 00:55:02;;;;;;;4.18;3.50;;;;;;;18.43;46.91;102092.00;144997;655;6002;-85
2021/10/03 00:57:43;;;;;;;5.20;3.65;;;;;;;18.53;45.61;102089.53;144992;608;6002;-88
2021/10/03 01:00:19;;;;;;;5.22;4.00;;;;;;;18.70;45.66;102085.47;144992;680;6002;-87
2021/10/03 01:02:48;;;;;;;5.20;3.40;;;;;;;18.71;45.67;102076.75;144992;630;6002;-88
2021/10/03 01:05:16;;;;;;;5.20;3.92;;;;;;;18.77;45.39;102087.37;144992;588;6002;-88
2021/10/03 01:07:44;;;;;;;6.15;3.67;;;;;;;18.84;45.64;102078.75;144991;646;6002;-88
2021/10/03 01:10:17;;;;;;;5.82;3.65;;;;;;;18.87;45.46;102074.37;144992;596;6002;-90
2021/10/03 01:12:45;;;;;;;4.93;3.70;;;;;;;18.88;45.79;102074.41;144992;569;6002;-87
2021/10/03 01:15:12;;;;;;;5.32;4.05;;;;;;;18.83;45.73;102063.81;144992;654;6002;-89
2021/10/03 01:17:39;;;;;;;4.43;3.50;;;;;;;18.79;45.63;102071.63;144992;613;6002;-88
2021/10/03 01:20:07;;;;;;;4.37;3.00;;;;;;;18.68;46.05;102068.78;144992;588;6002;-83
2021/10/03 01:22:37;;;;;;;4.55;3.15;;;;;;;18.78;46.45;102067.22;144992;565;6002;-88
2021/10/03 01:25:06;;;;;;;6.03;2.95;;;;;;;18.73;46.39;102063.63;144992;566;6002;-88
2021/10/03 01:27:36;;;;;;;4.70;3.40;;;;;;;18.77;45.98;102061.06;144992;593;6002;-88
2021/10/03 01:30:10;;;;;;;3.80;2.67;;;;;;;18.81;45.81;102047.09;144992;570;6002;-87
2021/10/03 01:32:38;;;;;;;3.30;3.00;;;;;;;18.90;46.03;102048.13;144992;642;6002;-88
2021/10/03 01:35:07;;;;;;;4.05;2.90;;;;;;;18.82;46.05;102040.97;144991;609;6002;-88
2021/10/03 01:37:34;;;;;;;4.53;3.17;;;;;;;18.84;45.86;102034.03;144992;605;6002;-89
2021/10/03 01:40:08;;;;;;;3.70;3.10;;;;;;;18.96;46.07;102035.09;144992;646;6002;-89
2021/10/03 01:42:36;;;;;;;3.70;3.10;;;;;;;19.05;45.49;102034.34;144992;597;6002;-88
2021/10/03 01:45:09;;;;;;;5.97;2.78;;;;;;;19.11;45.81;102031.81;144992;600;6002;-89
2021/10/03 01:48:14;;;;;;;5.05;3.28;;;;;;;19.12;45.42;102031.84;144992;566;6011;-88
2021/10/03 01:50:57;;;;;;;3.55;3.00;;;;;;;19.08;45.68;102035.28;144992;583;6002;-88
2021/10/03 01:53:28;;;;;;;4.68;3.10;;;;;;;19.09;45.72;102038.78;144992;565;6002;-89
2021/10/03 01:55:57;;;;;;;3.90;3.08;;;;;;;19.12;45.69;102034.47;144992;603;6002;-89
2021/10/03 01:58:27;;;;;;;4.03;2.50;;;;;;;18.88;47.21;102032.31;144992;584;6002;-90
2021/10/03 02:00:59;;;;;;;3.33;2.40;;;;;;;18.88;46.36;102028.81;144992;588;6002;-88
2021/10/03 02:03:27;;;;;;;2.62;2.28;;;;;;;18.96;46.34;102027.19;144992;600;6002;-87
2021/10/03 02:05:54;;;;;;;7.57;2.50;;;;;;;18.95;46.07;102022.81;144992;701;6002;-88
2021/10/03 02:08:21;;;;;;;3.25;2.45;;;;;;;18.92;46.61;102035.91;144992;650;6002;-87
2021/10/03 02:10:52;;;;;;;4.10;2.58;;;;;;;18.91;46.36;102021.84;144992;609;6002;-87
2021/10/03 02:13:22;;;;;;;4.90;3.03;;;;;;;18.79;46.76;102024.28;144992;569;6002;-88
2021/10/03 02:15:50;;;;;;;5.78;3.00;;;;;;;18.69;47.25;102023.19;144992;609;6002;-89
2021/10/03 02:18:20;;;;;;;5.20;3.00;;;;;;;18.67;46.82;102020.59;144992;598;6002;-89
2021/10/03 02:20:54;;;;;;;3.25;2.95;;;;;;;18.57;47.04;102023.00;144992;567;6002;-88
2021/10/03 02:23:21;;;;;;;4.65;3.00;;;;;;;18.54;47.22;102015.94;144992;609;6002;-87
2021/10/03 02:25:48;;;;;;;4.57;3.37;;;;;;;18.68;46.96;102027.59;144992;595;6002;-88
2021/10/03 02:28:21;;;;;;;4.40;3.87;;;;;;;18.78;46.63;102033.87;144992;570;6002;-86
2021/10/03 02:30:53;;;;;;;5.20;4.00;;;;;;;18.76;46.63;102029.47;144992;581;6002;-88
2021/10/03 02:33:23;;;;;;;5.10;4.40;;;;;;;18.79;46.56;102037.44;144992;585;6002;-87
2021/10/03 02:35:52;;;;;;;5.50;3.67;;;;;;;18.84;46.25;102028.75;144993;585;6002;-87
2021/10/03 02:38:22;;;;;;;5.95;3.97;;;;;;;18.93;45.94;102032.41;144993;580;6002;-88
2021/10/03 02:40:52;;;;;;;6.40;4.15;;;;;;;19.00;46.47;102035.16;144993;565;6002;-88
2021/10/03 02:43:20;;;;;;;5.22;3.90;;;;;;;18.95;46.27;102033.34;144993;583;6002;-89
2021/10/03 02:45:52;;;;;;;6.28;4.45;;;;;;;19.04;46.16;102033.44;144993;599;6002;-89
2021/10/03 02:48:22;;;;;;;5.82;4.30;;;;;;;19.05;46.43;102026.47;144993;659;6002;-87
2021/10/03 02:50:51;;;;;;;5.53;4.62;;;;;;;19.10;46.29;102030.91;144993;607;6002;-89
2021/10/03 02:53:20;;;;;;;6.30;4.50;;;;;;;18.99;46.44;102040.41;144993;564;6002;-89
2021/10/03 02:55:48;;;;;;;10.20;5.85;;;;;;;18.90;46.89;102037.59;144993;581;6002;-88
2021/10/03 02:58:16;;;;;;;10.32;5.30;;;;;;;18.80;47.13;102032.19;144993;563;6002;-88
2021/10/03 03:00:46;;;;;;;6.87;5.10;;;;;;;18.77;46.70;102041.75;144993;585;6002;-87
2021/10/03 03:03:14;;;;;;;5.85;5.25;;;;;;;18.81;46.84;102043.59;144993;591;6002;-88
2021/10/03 03:05:42;;;;;;;7.00;5.43;;;;;;;18.84;46.80;102047.19;144993;610;6002;-89
2021/10/03 03:08:09;;;;;;;7.75;5.22;;;;;;;18.81;46.96;102047.09;144992;625;6002;-89
2021/10/03 03:10:38;;;;;;;7.30;5.03;;;;;;;18.63;47.34;102046.78;144992;573;6002;-90
2021/10/03 03:13:06;;;;;;;6.15;4.50;;;;;;;18.57;47.48;102044.06;144992;577;6002;-88
2021/10/03 03:15:33;;;;;;;7.43;4.82;;;;;;;18.62;47.66;102048.53;144992;657;6002;-88
2021/10/03 03:18:01;;;;;;;7.43;4.82;;;;;;;18.73;46.79;102048.72;144992;595;6002;-88
2021/10/03 03:20:32;;;;;;;9.38;5.57;;;;;;;18.76;47.04;102046.13;144992;627;6002;-86
2021/10/03 03:23:00;;;;;;;8.50;5.45;;;;;;;18.71;46.91;102046.91;144993;599;6002;-87
2021/10/03 03:25:26;;;;;;;10.50;5.75;;;;;;;18.62;47.39;102053.78;144993;611;6002;-87
2021/10/03 03:27:54;;;;;;;10.73;5.37;;;;;;;18.73;47.01;102055.72;144993;564;6002;-89
2021/10/03 03:30:20;;;;;;;8.15;5.32;;;;;;;18.64;47.27;102064.31;144993;583;6002;-87
2021/10/03 03:32:47;;;;;;;8.95;5.80;;;;;;;18.73;47.06;102064.50;144993;594;6002;-83
2021/10/03 03:35:14;;;;;;;8.48;5.50;;;;;;;18.77;47.18;102071.59;144993;595;6002;-87
2021/10/03 03:37:42;;;;;;;7.37;5.18;;;;;;;18.80;46.91;102065.47;144993;603;6002;-87
2021/10/03 03:40:12;;;;;;;7.18;5.00;;;;;;;18.75;47.18;102064.53;144993;588;6002;-89
2021/10/03 03:42:40;;;;;;;6.40;4.80;;;;;;;18.82;46.80;102066.41;144993;565;6002;-87
2021/10/03 03:45:09;;;;;;;10.48;4.95;;;;;;;18.70;47.36;102071.44;144993;577;6002;-88
2021/10/03 03:47:37;;;;;;;6.78;4.70;;;;;;;18.70;47.24;102068.81;144993;571;6002;-88
2021/10/03 03:50:07;;;;;;;6.47;4.35;;;;;;;18.67;46.87;102064.37;144993;621;6002;-87
2021/10/03 03:52:34;;;;;;;6.78;4.57;;;;;;;18.67;47.41;102067.00;144993;615;6002;-87
2021/10/03 03:55:05;;;;;;;6.30;4.82;;;;;;;18.72;47.20;102070.59;144993;570;6002;-88
2021/10/03 03:57:32;;;;;;;5.20;4.32;;;;;;;18.80;47.06;102069.03;144993;608;6002;-87
2021/10/03 03:59:59;;;;;;;7.95;4.57;;;;;;;18.75;46.96;102068.03;144993;583;6002;-86
2021/10/03 04:02:27;;;;;;;5.72;4.43;;;;;;;18.81;46.73;102069.91;144993;570;6002;-86
2021/10/03 04:04:54;;;;;;;7.75;5.07;;;;;;;18.64;47.26;102065.22;144993;588;6002;-92
2021/10/03 04:07:23;;;;;;;6.20;4.47;;;;;;;18.56;47.77;102064.19;144993;591;6002;-87
2021/10/03 04:09:51;;;;;;;6.03;4.50;;;;;;;18.66;47.26;102067.91;144993;563;6002;-88
2021/10/03 04:12:18;;;;;;;5.37;4.87;;;;;;;18.66;47.19;102073.16;144993;607;6002;-88
2021/10/03 04:14:46;;;;;;;7.22;4.50;;;;;;;18.67;47.36;102072.28;144993;642;6002;-88
2021/10/03 04:17:13;;;;;;;6.28;4.40;;;;;;;18.70;47.68;102077.59;144994;566;5002;-87
2021/10/03 04:19:40;;;;;;;7.85;4.28;;;;;;;18.56;48.64;102071.19;144994;574;5002;-86
2021/10/03 04:22:10;;;;;;;6.50;4.35;;;;;;;18.61;47.77;102075.69;144994;566;5002;-87
2021/10/03 04:24:36;;;;;;;7.85;5.07;;;;;;;18.57;47.64;102081.75;144994;579;5002;-90
2021/10/03 04:27:04;;;;;;;10.18;4.80;;;;;;;18.55;47.56;102074.66;144994;612;5002;-88
2021/10/03 04:29:30;;;;;;;5.60;4.57;;;;;;;18.48;47.62;102084.19;144994;670;5002;-88
2021/10/03 04:31:57;;;;;;;5.57;4.57;;;;;;;18.43;49.05;102081.47;144994;659;5002;-88
2021/10/03 04:34:24;;;;;;;5.45;4.93;;;;;;;18.44;48.19;102082.38;144994;573;5002;-88
2021/10/03 04:36:51;;;;;;;6.70;4.60;;;;;;;18.31;48.31;102076.00;144994;594;5002;-89
2021/10/03 04:39:17;;;;;;;8.63;5.28;;;;;;;18.19;48.45;102078.38;144994;575;5002;-88
2021/10/03 04:41:44;;;;;;;6.45;4.60;;;;;;;18.07;50.32;102089.53;144994;641;5002;-88
2021/10/03 04:44:10;;;;;;;7.53;4.82;;;;;;;18.03;49.63;102101.72;144994;572;5002;-91
2021/10/03 04:46:37;;;;;;;6.53;5.28;;;;;;;17.93;49.20;102105.00;144994;580;5002;-89
2021/10/03 04:49:03;;;;;;;7.25;5.37;;;;;;;17.73;50.16;102099.28;144994;616;5002;-86
2021/10/03 04:51:30;;;;;;;8.70;5.20;;;;;;;17.68;51.40;102109.69;144994;602;5002;-89
2021/10/03 04:53:56;;;;;;;8.52;5.82;;;;;;;17.79;51.15;102104.69;144994;603;5002;-88
2021/10/03 04:56:23;;;;;;;8.00;5.22;;;;;;;17.79;50.99;102109.94;144994;590;5002;-89
2021/10/03 04:58:50;;;;;;;8.82;5.40;;;;;;;17.76;49.78;102099.34;144993;592;5002;-87
2021/10/03 05:01:17;;;;;;;5.72;4.82;;;;;;;17.70;51.53;102105.34;144994;565;5002;-89
2021/10/03 05:03:44;;;;;;;7.07;5.07;;;;;;;17.65;51.89;102106.09;144994;601;5002;-87
2021/10/03 05:06:10;;;;;;;8.88;5.25;;;;;;;17.68;49.78;102108.81;144994;587;5002;-88
2021/10/03 05:08:37;;;;;;;5.82;4.85;;;;;;;17.71;51.60;102117.63;144994;636;5002;-88
2021/10/03 05:11:04;;;;;;;7.62;5.50;;;;;;;17.85;49.39;102117.94;144994;676;5002;-88
2021/10/03 05:13:32;;;;;;;8.18;5.70;;;;;;;17.93;49.66;102123.41;144994;592;5002;-89
2021/10/03 05:15:59;;;;;;;6.53;4.90;;;;;;;17.93;49.35;102129.53;144994;667;5002;-87
2021/10/03 05:18:26;;;;;;;6.97;5.22;;;;;;;17.98;49.61;102132.28;144994;565;5002;-87
2021/10/03 05:20:53;;;;;;;8.00;5.50;;;;;;;17.91;50.15;102130.34;144994;576;5002;-88
2021/10/03 05:23:20;;;;;;;7.25;5.28;;;;;;;18.00;49.39;102129.66;144994;569;5002;-88
2021/10/03 05:25:47;;;;;;;8.23;5.55;;;;;;;17.96;49.71;102139.25;144994;571;5002;-87
2021/10/03 05:28:13;;;;;;;8.38;5.40;;;;;;;17.90;51.07;102146.97;144994;745;5002;-87
2021/10/03 05:30:40;;;;;;;8.43;5.78;;;;;;;17.94;49.58;102144.47;144994;585;5002;-88
2021/10/03 05:33:06;;;;;;;6.62;5.35;;;;;;;18.02;49.74;102143.72;144994;582;5002;-87
2021/10/03 05:35:36;;;;;;;6.47;5.30;;;;;;;18.01;49.50;102148.09;144994;584;5002;-87
2021/10/03 05:38:03;;;;;;;5.35;4.80;;;;;;;18.06;49.83;102146.44;144994;569;5002;-86
2021/10/03 05:40:31;;;;;;;7.20;5.60;;;;;;;18.04;50.20;102148.16;144994;723;5002;-87
2021/10/03 05:42:58;;;;;;;7.28;5.30;;;;;;;18.10;49.79;102143.06;144993;566;5003;-88
2021/10/03 05:45:25;;;;;;;9.27;5.47;;;;;;;18.06;49.91;102156.09;144994;584;5002;-88
2021/10/03 05:47:52;;;;;;;10.57;5.53;;;;;;;18.11;49.46;102162.31;144994;585;5002;-88
2021/10/03 05:50:18;;;;;;;8.13;5.32;;;;;;;18.12;51.13;102162.34;144994;596;5003;-88
2021/10/03 05:52:45;;;;;;;7.28;5.60;;;;;;;18.22;49.48;102157.31;144994;582;5002;-87
2021/10/03 05:55:12;;;;;;;6.45;4.85;;;;;;;18.24;49.58;102164.34;144994;569;5002;-87
2021/10/03 05:57:38;;;;;;;8.15;5.78;;;;;;;18.29;50.39;102160.09;144994;570;5002;-88
2021/10/03 06:00:06;;;;;;;7.87;5.07;;;;;;;18.23;49.67;102157.34;144994;570;5002;-87
2021/10/03 06:02:32;;;;;;;7.05;5.40;;;;;;;18.33;49.70;102163.66;144994;574;5002;-87
2021/10/03 06:04:59;;;;;;;5.70;5.20;;;;;;;18.29;49.78;102160.09;144994;580;5002;-87
2021/10/03 06:07:25;;;;;;;5.97;4.82;;;;;;;18.25;50.05;102165.25;144994;565;5002;-89
2021/10/03 06:09:52;;;;;;;7.03;5.20;;;;;;;18.31;49.56;102168.00;144994;569;5002;-88
2021/10/03 06:12:18;;;;;;;5.50;4.85;;;;;;;18.35;49.79;102169.84;144994;592;5003;-89
2021/10/03 06:14:45;;;;;;;9.43;5.47;;;;;;;18.35;49.71;102175.09;144994;607;5002;-87
2021/10/03 06:17:11;;;;;;;9.23;5.47;;;;;;;18.35;49.94;102169.84;144994;644;5002;-88
2021/10/03 06:19:38;;;;;;;7.32;5.40;;;;;;;18.36;50.25;102169.00;144994;596;5002;-88
2021/10/03 06:22:04;;;;;;;6.18;5.37;;;;;;;18.42;49.40;102155.06;144994;566;5002;-86
2021/10/03 06:24:31;;;;;;;9.40;5.75;;;;;;;18.37;50.12;102172.50;144994;587;5002;-87
2021/10/03 06:26:58;;;;;;;7.97;5.87;;;;;;;18.39;49.80;102166.44;144994;604;5002;-88
2021/10/03 06:29:24;;;;;;;8.88;6.00;;;;;;;18.39;49.76;102166.44;144994;589;5002;-88
2021/10/03 06:31:50;;;;;;;10.43;5.95;;;;;;;18.40;51.30;102170.81;144994;604;5002;-88
2021/10/03 06:34:17;;;;;;;12.63;6.32;;;;;;;18.40;50.95;102167.31;144994;620;5002;-87
2021/10/03 06:36:44;;;;;;;9.88;6.18;;;;;;;18.33;50.61;102168.91;144994;567;5002;-87
2021/10/03 06:39:10;;;;;;;10.38;6.20;;;;;;;18.31;51.56;102170.62;144994;615;5002;-87
2021/10/03 06:41:37;;;;;;;7.75;6.70;;;;;;;18.34;50.88;102169.81;144994;579;5002;-87
2021/10/03 06:44:05;;;;;;;6.50;5.80;;;;;;;18.59;50.37;102163.28;144994;583;5002;-89
2021/10/03 06:46:31;;;;;;;8.23;6.15;;;;;;;18.84;49.85;102168.19;144994;615;5002;-87
2021/10/03 06:48:58;;;;;;;9.25;5.80;;;;;;;19.06;49.44;102172.97;144994;629;5002;-87
2021/10/03 06:51:24;;;;;;;9.65;6.07;;;;;;;19.17;49.60;102180.19;144994;594;5002;-88
2021/10/03 06:53:51;;;;;;;8.93;6.40;;;;;;;19.33;49.42;102183.97;144994;579;5002;-89
2021/10/03 06:56:17;;;;;;;7.82;6.18;;;;;;;19.47;48.99;102176.31;144994;573;5002;-88
2021/10/03 06:58:44;;;;;;;7.97;6.60;;;;;;;19.74;48.86;102174.94;144994;588;5002;-89
2021/10/03 07:01:13;;;;;;;9.23;6.70;;;;;;;19.83;48.75;102175.13;144994;605;5002;-88
2021/10/03 07:03:40;;;;;;;9.95;6.62;;;;;;;19.73;49.11;102181.09;144994;580;5002;-88
2021/10/03 07:06:07;;;;;;;8.20;7.03;;;;;;;19.68;49.22;102181.03;144994;594;5002;-86
2021/10/03 07:08:34;;;;;;;8.98;6.47;;;;;;;19.73;49.23;102181.09;144994;594;5002;-87
2021/10/03 07:11:00;;;;;;;8.57;6.72;;;;;;;19.83;48.81;102179.53;144994;591;5002;-88
2021/10/03 07:13:27;;;;;;;8.63;7.28;;;;;;;19.92;48.92;102171.75;144994;596;5002;-90
2021/10/03 07:15:53;;;;;;;7.95;6.85;;;;;;;19.99;48.87;102178.87;144994;645;5002;-89
2021/10/03 07:18:21;;;;;;;9.68;6.43;;;;;;;20.11;48.67;102183.44;144993;563;5002;-87
2021/10/03 07:20:47;;;;;;;9.65;6.10;;;;;;;20.06;48.75;102188.63;144994;565;5002;-86
2021/10/03 07:23:14;;;;;;;7.12;5.90;;;;;;;20.10;48.83;102189.56;144994;600;5002;-86
2021/10/03 07:25:41;;;;;;;9.65;5.57;;;;;;;20.20;48.84;102188.84;144994;581;5002;-87
2021/10/03 07:28:08;;;;;;;7.85;5.60;;;;;;;20.29;48.66;102186.28;144994;616;5002;-88
2021/10/03 07:30:35;;;;;;;8.43;6.03;;;;;;;20.38;48.15;102193.44;144994;605;5002;-89
2021/10/03 07:33:02;;;;;;;10.40;6.43;;;;;;;20.30;48.64;102196.00;144994;569;5002;-87
2021/10/03 07:35:30;;;;;;;9.07;5.82;;;;;;;20.29;48.70;102201.25;144994;575;5002;-90
2021/10/03 07:37:56;;;;;;;8.50;6.75;;;;;;;20.33;48.88;102200.44;144994;607;5002;-88
2021/10/03 07:40:23;;;;;;;8.55;6.12;;;;;;;20.33;48.67;102204.78;144994;619;5002;-87
2021/10/03 07:42:50;;;;;;;9.32;6.22;;;;;;;20.30;48.64;102201.25;144994;701;5002;-89
2021/10/03 07:45:16;;;;;;;7.87;6.20;;;;;;;20.35;48.80;102209.22;144994;563;5002;-90
2021/10/03 07:47:43;;;;;;;7.62;6.37;;;;;;;20.35;48.65;102211.00;144994;684;5002;-89
2021/10/03 07:50:10;;;;;;;7.43;6.10;;;;;;;20.33;48.66;102213.63;144994;564;5002;-88
2021/10/03 07:52:36;;;;;;;8.45;6.12;;;;;;;20.36;48.61;102223.28;144994;652;5002;-86
2021/10/03 07:55:03;;;;;;;10.35;5.87;;;;;;;20.36;48.76;102216.28;144994;589;5002;-87
2021/10/03 07:57:30;;;;;;;9.90;5.95;;;;;;;20.43;48.59;102212.84;144994;663;5002;-86
2021/10/03 07:59:58;;;;;;;6.95;5.80;;;;;;;20.48;48.33;102219.06;144994;637;5002;-90
2021/10/03 08:02:24;;;;;;;7.20;5.70;;;;;;;20.49;48.41;102219.97;144994;632;5002;-89
2021/10/03 08:04:51;;;;;;;7.45;5.03;;;;;;;20.47;48.48;102219.03;144994;645;5002;-88
2021/10/03 08:07:17;;;;;;;9.48;6.00;;;;;;;20.54;48.49;102217.38;144994;617;5002;-86
2021/10/03 08:09:44;;;;;;;7.47;5.60;;;;;;;20.54;48.54;102220.91;144994;679;5002;-87
2021/10/03 08:12:11;;;;;;;7.68;5.72;;;;;;;20.54;48.45;102225.31;144994;590;5002;-89
2021/10/03 08:14:38;;;;;;;7.90;5.25;;;;;;;20.65;48.55;102224.59;144994;597;5002;-88
2021/10/03 08:17:04;;;;;;;10.05;5.65;;;;;;;20.79;48.33;102222.12;144994;596;5002;-89
2021/10/03 08:19:31;;;;;;;9.50;5.75;;;;;;;20.93;48.12;102221.38;144994;674;5002;-88
2021/10/03 08:21:58;;;;;;;8.57;5.53;;;;;;;21.06;48.46;102220.66;144994;615;5002;-86
2021/10/03 08:24:24;;;;;;;6.40;4.82;;;;;;;21.19;47.86;102227.81;144994;563;5002;-88
2021/10/03 08:26:51;;;;;;;5.47;4.68;;;;;;;21.31;47.90;102223.50;144994;667;5002;-89
2021/10/03 08:29:19;;;;;;;6.95;4.20;;;;;;;21.59;48.09;102229.03;144994;637;5002;-88
2021/10/03 08:31:45;;;;;;;5.97;4.30;;;;;;;21.82;47.63;102222.19;144994;597;5002;-89
2021/10/03 08:34:12;;;;;;;6.12;3.50;;;;;;;22.01;46.97;102230.25;144994;616;5002;-87
2021/10/03 08:36:38;;;;;;;6.78;3.70;;;;;;;22.08;47.11;102227.66;144994;575;5002;-88
2021/10/03 08:39:05;;;;;;;6.30;4.20;;;;;;;22.12;46.93;102225.03;144994;573;5002;-83
2021/10/03 08:41:32;;;;;;;6.12;3.70;;;;;;;22.09;46.99;102218.81;144994;586;5002;-88
2021/10/03 08:43:58;;;;;;;5.03;3.65;;;;;;;22.08;47.04;102227.66;144994;667;5002;-87
2021/10/03 08:46:26;;;;;;;4.93;3.78;;;;;;;22.10;46.88;102231.19;144994;594;5002;-87
2021/10/03 08:48:55;;;;;;;7.37;4.22;;;;;;;22.14;46.74;102224.13;144994;613;4566;-90
2021/10/03 08:51:23;;;;;;;7.25;5.00;;;;;;;22.10;46.85;102228.53;144994;567;4572;-88
2021/10/03 08:53:51;;;;;;;12.93;7.95;;;;;;;22.13;46.58;102226.78;144994;587;4572;-87
2021/10/03 08:56:18;;;;;;;17.17;10.15;;;;;;;22.12;46.78;102230.31;144992;564;6002;-88
2021/10/03 08:58:45;;;;;;;7.85;5.03;;;;;;;22.09;46.45;102229.38;144992;571;6002;-87
2021/10/03 09:01:13;;;;;;;6.72;5.82;;;;;;;22.08;46.58;102227.66;144992;580;6002;-86
2021/10/03 09:03:40;;;;;;;5.25;4.30;;;;;;;22.13;46.49;102221.47;144992;594;6002;-87
2021/10/03 09:06:07;;;;;;;6.47;3.62;;;;;;;22.20;46.67;102220.66;144992;649;6002;-86
2021/10/03 09:08:42;;;;;;;7.15;3.95;;;;;;;22.26;46.54;102218.03;144992;571;6002;-84
2021/10/03 09:11:11;;;;;;;6.93;4.62;;;;;;;22.34;46.31;102221.62;144992;564;6002;-86
2021/10/03 09:13:57;;;;;;;5.28;4.20;;;;;;;22.37;46.19;102213.72;144992;602;6002;-85
2021/10/03 09:16:34;;;;;;;7.68;4.22;;;;;;;22.43;46.45;102207.56;144992;578;6004;-88
2021/10/03 09:19:13;;;;;;;6.62;3.70;;;;;;;22.49;45.99;102209.34;144992;604;6004;-87
2021/10/03 09:21:44;;;;;;;5.82;3.78;;;;;;;22.49;46.35;102207.56;144992;615;6004;-87
2021/10/03 09:24:16;;;;;;;5.57;3.53;;;;;;;22.53;46.40;102203.22;144992;596;6004;-86
2021/10/03 09:27:03;;;;;;;5.60;4.20;;;;;;;22.70;46.20;102197.94;144992;596;6004;-88
2021/10/03 09:29:34;;;;;;;8.93;5.37;;;;;;;22.79;45.90;102192.69;144992;591;6004;-87
2021/10/03 09:32:18;;;;;;;5.12;4.57;;;;;;;22.83;45.85;102192.69;144992;585;6004;-89
2021/10/03 09:34:50;;;;;;;4.05;3.37;;;;;;;22.90;45.41;102198.00;144992;579;6004;-88
2021/10/03 09:37:34;;;;;;;4.60;3.35;;;;;;;22.94;45.47;102187.44;144992;572;6004;-87
2021/10/03 09:40:04;;;;;;;5.45;4.22;;;;;;;23.06;45.36;102189.19;144992;603;6004;-87
2021/10/03 09:42:30;;;;;;;5.60;4.35;;;;;;;23.14;45.13;102186.59;144992;562;6004;-87
2021/10/03 09:45:25;;;;;;;9.45;4.03;;;;;;;23.25;44.78;102183.94;144992;577;6004;-88
2021/10/03 09:48:08;;;;;;;6.82;3.87;;;;;;;23.31;44.09;102186.59;144992;585;6002;-87
2021/10/03 09:50:40;;;;;;;7.35;3.70;;;;;;;23.18;44.25;102183.06;144992;565;6002;-88
2021/10/03 09:53:08;;;;;;;6.80;3.80;;;;;;;23.12;45.20;102173.34;144992;623;6002;-87
2021/10/03 09:55:35;;;;;;;10.20;3.30;;;;;;;23.28;44.72;102168.06;144992;583;6002;-88
2021/10/03 09:58:02;;;;;;;9.45;3.97;;;;;;;23.35;43.18;102164.50;144992;605;6002;-87
2021/10/03 10:00:29;;;;;;;6.75;3.60;;;;;;;23.38;44.40;102164.50;144992;581;6002;-85
2021/10/03 10:02:56;;;;;;;5.93;3.00;;;;;;;23.50;44.05;102161.84;144992;592;6002;-85
2021/10/03 10:05:27;;;;;;;4.72;2.78;;;;;;;23.62;44.00;102157.41;144992;627;6002;-88
2021/10/03 10:07:56;;;;;;;5.03;2.75;;;;;;;23.69;43.22;102149.47;144992;598;6002;-86
2021/10/03 10:10:23;;;;;;;4.87;2.67;;;;;;;23.70;43.52;102150.31;144992;671;6002;-87
2021/10/03 10:12:57;;;;;;;3.25;2.65;;;;;;;23.68;43.48;102145.03;144992;613;6002;-86
2021/10/03 10:15:25;;;;;;;3.93;2.57;;;;;;;23.70;42.90;102134.41;144992;594;6002;-86
2021/10/03 10:17:52;;;;;;;3.17;2.75;;;;;;;23.81;42.55;102134.41;144992;568;6002;-87
2021/10/03 10:20:38;;;;;;;3.67;2.60;;;;;;;23.81;42.36;102139.69;144992;652;6002;-87
2021/10/03 10:23:10;;;;;;;5.68;3.12;;;;;;;23.30;41.48;102131.84;144992;575;6004;-86
2021/10/03 10:25:43;;;;;;;4.22;2.55;;;;;;;23.12;42.87;102138.03;144992;580;6005;-88
2021/10/03 10:28:31;;;;;;;3.55;3.20;;;;;;;23.13;42.88;102132.75;144992;579;6004;-88
2021/10/03 10:31:15;;;;;;;5.68;3.12;;;;;;;23.01;43.44;102138.00;144992;590;6002;-87
2021/10/03 10:34:13;;;;;;;3.53;2.60;;;;;;;23.01;43.02;102125.63;144992;620;6002;-87
2021/10/03 10:36:53;;;;;;;6.07;3.00;;;;;;;22.82;42.94;102127.38;144992;599;6004;-88
2021/10/03 10:39:21;;;;;;;4.55;2.60;;;;;;;22.73;42.99;102126.50;144992;604;6004;-89
2021/10/03 10:41:58;;;;;;;4.80;3.20;;;;;;;22.78;43.58;102115.03;144992;608;6004;-89
2021/10/03 10:44:36;;;;;;;4.57;2.85;;;;;;;22.59;43.66;102113.25;144991;567;6000;-89
2021/10/03 10:47:14;;;;;;;4.32;2.85;;;;;;;22.41;44.02;102112.34;144992;563;6002;-89
2021/10/03 10:50:13;;;;;;;4.57;3.40;;;;;;;22.39;44.38;102106.12;144992;611;6002;-90
2021/10/03 10:52:39;;;;;;;5.37;3.72;;;;;;;22.58;44.63;102101.75;144992;608;6004;-88
2021/10/03 10:55:26;;;;;;;8.98;4.35;;;;;;;22.72;44.24;102099.16;144992;590;6004;-89
2021/10/03 10:58:13;;;;;;;4.07;2.75;;;;;;;22.60;44.27;102100.00;144992;624;6004;-92
2021/10/03 11:00:56;;;;;;;5.75;3.22;;;;;;;22.80;44.48;102100.03;144992;629;6002;-88
2021/10/03 11:04:03;;;;;;;3.50;2.85;;;;;;;23.06;43.78;102098.28;144992;672;6002;-83
2021/10/03 11:06:54;;;;;;;5.65;2.95;;;;;;;23.07;43.65;102092.13;144991;682;6002;-89
2021/10/03 11:09:20;;;;;;;5.75;3.85;;;;;;;22.92;43.93;102085.94;144991;637;6000;-89
2021/10/03 11:12:12;;;;;;;5.00;2.95;;;;;;;22.74;44.22;102086.78;144992;578;6002;-88
2021/10/03 11:14:41;;;;;;;4.07;2.55;;;;;;;22.81;43.70;102080.63;144992;616;6004;-89
2021/10/03 11:17:09;;;;;;;6.62;3.20;;;;;;;22.68;44.21;102083.25;144992;588;6004;-87
2021/10/03 11:19:43;;;;;;;4.40;2.50;;;;;;;22.67;44.08;102074.44;144992;610;6004;-88
2021/10/03 11:22:19;;;;;;;3.50;2.72;;;;;;;22.63;44.08;102070.87;144992;571;6004;-90
2021/10/03 11:24:52;;;;;;;3.25;2.45;;;;;;;22.70;44.04;102069.16;144992;593;6005;-87
2021/10/03 11:27:22;;;;;;;4.78;3.00;;;;;;;22.64;44.17;102058.56;144992;608;6004;-90
2021/10/03 11:29:59;;;;;;;4.60;3.15;;;;;;;22.71;44.54;102054.16;144992;578;6004;-88
2021/10/03 11:32:31;;;;;;;5.80;2.80;;;;;;;22.91;43.75;102062.09;144992;572;6005;-88
2021/10/03 11:35:08;;;;;;;5.95;3.62;;;;;;;22.83;44.39;102055.03;144991;593;6000;-89
2021/10/03 11:37:37;;;;;;;4.65;2.40;;;;;;;22.99;44.08;102055.03;144992;580;6002;-88
2021/10/03 11:40:11;;;;;;;3.40;2.20;;;;;;;23.01;43.59;102058.56;144992;564;6002;-90
2021/10/03 11:42:47;;;;;;;3.90;2.40;;;;;;;23.07;43.12;102039.16;144992;631;6002;-88
2021/10/03 11:45:21;;;;;;;6.75;3.95;;;;;;;22.98;43.56;102042.66;144992;601;6002;-89
2021/10/03 11:47:55;;;;;;;5.70;3.30;;;;;;;22.89;43.73;102042.66;144991;572;6002;-88
2021/10/03 11:50:26;;;;;;;3.60;2.87;;;;;;;22.62;43.60;102034.75;144992;563;6002;-90
2021/10/03 11:52:55;;;;;;;5.50;3.20;;;;;;;22.86;43.79;102043.56;144992;595;6002;-88
2021/10/03 11:55:33;;;;;;;5.32;3.15;;;;;;;22.90;43.53;102039.16;144992;606;6002;-88